GNA weather

General Alvear Airport
General Alvear, Mendoza Province, Argentina

Public forecast

Using degrees Celsius for public forecast. Weather courtesy of forecast.io.

Closest aviation weather report (METAR) to General Alvear Airport

Report is more than 6 hours old.

Closest report is Suboficial Ay Santiago Germano Airport, 45.0 nm (83.4 km) NW. Retrieved 2020/05/21 20:00 UTC (9 days ago):

SAMR 212000Z 18006KT 9999 OVC009 07/04 Q1025

Closest aviation forecast (TAF) to General Alvear Airport

Forecast is more than 12 hours old.

Closest forecast is Suboficial Ay Santiago Germano Airport, 45.0 nm (83.4 km) NW. Retrieved 2019/08/18 18:03 UTC (10 months ago):

TAF SAMR 181700Z 1818/1918 16010KT 9999 OVC030 SCT070 TX12/1819Z TN01/1911Z